createdAt,value
2022-08-19T00:02:03.939Z,99.90
2022-08-19T00:04:35.882Z,99.90
2022-08-19T00:07:04.578Z,99.90
2022-08-19T00:09:31.733Z,99.90
2022-08-19T00:12:00.134Z,99.90
2022-08-19T00:14:28.327Z,99.90
2022-08-19T00:16:55.805Z,99.90
2022-08-19T00:19:23.153Z,99.90
2022-08-19T00:21:50.418Z,99.90
2022-08-19T00:24:17.505Z,99.90
2022-08-19T00:26:46.388Z,99.90
2022-08-19T00:29:15.849Z,99.90
2022-08-19T00:31:44.054Z,99.90
2022-08-19T00:34:13.053Z,99.90
2022-08-19T00:36:41.433Z,99.90
2022-08-19T00:39:09.880Z,99.90
2022-08-19T00:41:37.305Z,99.90
2022-08-19T00:44:14.955Z,99.90
2022-08-19T00:46:44.334Z,99.90
2022-08-19T00:49:21.584Z,99.90
2022-08-19T00:51:52.600Z,99.90
2022-08-19T00:54:20.440Z,99.90
2022-08-19T00:56:56.843Z,99.90
2022-08-19T01:00:00.325Z,99.90
2022-08-19T01:02:11.255Z,99.90
2022-08-19T01:04:38.126Z,99.90
2022-08-19T01:07:05.567Z,99.90
2022-08-19T01:09:32.830Z,99.90
2022-08-19T01:11:59.684Z,99.90
2022-08-19T01:14:27.180Z,99.90
2022-08-19T01:16:56.544Z,99.90
2022-08-19T01:19:44.247Z,99.90
2022-08-19T01:22:37.901Z,99.90
2022-08-19T01:25:12.865Z,99.90
2022-08-19T01:27:45.555Z,99.90
2022-08-19T01:30:20.095Z,99.90
2022-08-19T01:32:47.399Z,99.90
2022-08-19T01:35:15.165Z,99.90
2022-08-19T01:37:56.080Z,99.90
2022-08-19T01:40:25.917Z,99.90
2022-08-19T01:42:54.166Z,99.90
2022-08-19T01:45:24.496Z,99.90
2022-08-19T01:47:52.717Z,99.90
2022-08-19T01:50:28.739Z,99.90
2022-08-19T01:53:03.594Z,99.90
2022-08-19T01:55:34.260Z,99.90
2022-08-19T01:58:04.692Z,99.90
2022-08-19T02:00:33.348Z,99.90
2022-08-19T02:03:02.045Z,99.90
2022-08-19T02:05:30.218Z,99.90
2022-08-19T02:07:58.194Z,99.90
2022-08-19T02:10:25.390Z,99.90
2022-08-19T02:12:52.431Z,99.90
2022-08-19T02:15:20.700Z,99.90
2022-08-19T02:17:48.839Z,99.90
2022-08-19T02:20:16.346Z,99.90
2022-08-19T02:22:43.826Z,99.90
2022-08-19T02:25:12.486Z,99.90
2022-08-19T02:27:40.826Z,99.90
2022-08-19T02:30:10.497Z,99.90
2022-08-19T02:32:44.331Z,99.90
2022-08-19T02:35:12.782Z,99.90
2022-08-19T02:37:58.866Z,99.90
2022-08-19T02:40:25.942Z,99.90
2022-08-19T02:42:53.196Z,99.90
2022-08-19T02:45:20.299Z,99.90
2022-08-19T02:47:47.598Z,99.90
2022-08-19T02:50:15.591Z,99.90
2022-08-19T02:52:42.544Z,99.90
2022-08-19T02:55:09.963Z,99.90
2022-08-19T02:57:36.931Z,99.90
2022-08-19T03:00:07.704Z,99.90
2022-08-19T03:02:34.657Z,99.90
2022-08-19T03:05:03.387Z,99.90
2022-08-19T03:07:31.478Z,99.90
2022-08-19T03:09:58.442Z,99.90
2022-08-19T03:12:25.411Z,99.90
2022-08-19T03:14:53.074Z,99.90
2022-08-19T03:17:20.379Z,99.90
2022-08-19T03:19:47.295Z,99.90
2022-08-19T03:22:14.248Z,99.90
2022-08-19T03:24:41.490Z,99.90
2022-08-19T03:27:08.351Z,99.90
2022-08-19T03:29:43.142Z,99.90
2022-08-19T03:32:32.653Z,99.90
2022-08-19T03:34:58.406Z,99.90
2022-08-19T03:37:25.293Z,99.90
2022-08-19T03:39:52.890Z,99.90
2022-08-19T03:42:32.880Z,99.90
2022-08-19T03:45:00.537Z,99.90
2022-08-19T03:47:27.412Z,99.90
2022-08-19T03:49:54.350Z,99.90
2022-08-19T03:52:21.281Z,99.90
2022-08-19T03:54:48.206Z,99.90
2022-08-19T03:57:15.050Z,99.90
2022-08-19T03:59:41.935Z,99.90
2022-08-19T04:02:12.356Z,99.90
2022-08-19T04:04:41.323Z,99.90
2022-08-19T04:07:09.343Z,99.90
2022-08-19T04:09:37.627Z,99.90
2022-08-19T04:12:06.539Z,99.90
2022-08-19T04:14:34.828Z,99.90
2022-08-19T04:17:05.915Z,99.90
2022-08-19T04:19:34.130Z,99.90
2022-08-19T04:22:01.068Z,99.90
2022-08-19T04:24:28.136Z,99.90
2022-08-19T04:26:55.354Z,99.90
2022-08-19T04:29:26.147Z,99.90
2022-08-19T04:31:54.865Z,99.90
2022-08-19T04:34:24.976Z,99.90
2022-08-19T04:36:54.248Z,99.90
2022-08-19T04:39:44.464Z,99.90
2022-08-19T04:42:30.967Z,99.90
2022-08-19T04:44:59.611Z,99.90
2022-08-19T04:47:46.885Z,99.90
2022-08-19T04:50:14.091Z,99.90
2022-08-19T04:52:44.058Z,99.90
2022-08-19T04:55:12.183Z,99.90
2022-08-19T04:57:41.282Z,99.90
2022-08-19T05:00:10.606Z,99.90
2022-08-19T05:02:38.639Z,99.90
2022-08-19T05:05:07.560Z,99.90
2022-08-19T05:07:37.902Z,99.90
2022-08-19T05:10:06.972Z,99.90
2022-08-19T05:12:34.408Z,99.90
2022-08-19T05:15:02.855Z,99.90
2022-08-19T05:17:34.593Z,99.90
2022-08-19T05:20:23.434Z,99.90
2022-08-19T05:22:50.437Z,99.90
2022-08-19T05:25:21.170Z,99.90
2022-08-19T05:27:48.630Z,99.90
2022-08-19T05:30:16.190Z,99.90
2022-08-19T05:32:43.943Z,99.90
2022-08-19T05:35:11.604Z,99.90
2022-08-19T05:37:41.428Z,99.90
2022-08-19T05:40:09.607Z,99.90
2022-08-19T05:42:36.474Z,99.90
2022-08-19T05:45:03.875Z,99.90
2022-08-19T05:47:30.740Z,99.90
2022-08-19T05:49:57.611Z,99.90
2022-08-19T05:52:25.957Z,99.90
2022-08-19T05:54:56.194Z,99.90
2022-08-19T05:57:24.329Z,99.90
2022-08-19T05:59:53.044Z,99.90
2022-08-19T06:02:29.724Z,99.90
2022-08-19T06:04:56.629Z,99.90
2022-08-19T06:07:23.751Z,99.90
2022-08-19T06:09:59.853Z,99.90
2022-08-19T06:12:32.784Z,99.90
2022-08-19T06:15:01.946Z,99.90
2022-08-19T06:17:31.320Z,99.90
2022-08-19T06:19:59.586Z,99.90
2022-08-19T06:22:27.717Z,99.90
2022-08-19T06:24:55.529Z,99.90
2022-08-19T06:27:23.220Z,99.90
2022-08-19T06:29:50.574Z,99.90
2022-08-19T06:32:19.424Z,99.90
2022-08-19T06:34:47.036Z,99.90
2022-08-19T06:37:14.204Z,99.60
2022-08-19T06:39:43.585Z,98.40
2022-08-19T06:42:14.096Z,97.40
2022-08-19T06:44:43.681Z,97.90
2022-08-19T06:47:23.668Z,95.90
2022-08-19T06:50:03.335Z,93.60
2022-08-19T06:52:36.799Z,91.40
2022-08-19T06:55:06.785Z,90.10
2022-08-19T06:57:34.485Z,88.60
2022-08-19T07:00:01.988Z,90.30
2022-08-19T07:02:29.061Z,92.30
2022-08-19T07:04:58.908Z,89.10
2022-08-19T07:07:26.362Z,89.40
2022-08-19T07:09:59.361Z,89.50
2022-08-19T07:12:35.563Z,88.10
2022-08-19T07:15:04.970Z,87.80
2022-08-19T07:17:34.564Z,87.70
2022-08-19T07:20:06.920Z,84.90
2022-08-19T07:22:37.382Z,83.90
2022-08-19T07:25:05.100Z,81.10
2022-08-19T07:27:33.643Z,79.60
2022-08-19T07:30:01.942Z,77.00
2022-08-19T07:32:28.988Z,74.50
2022-08-19T07:34:56.495Z,75.50
2022-08-19T07:37:27.314Z,77.30
2022-08-19T07:39:56.629Z,80.70
2022-08-19T07:42:23.585Z,80.20
2022-08-19T07:44:51.096Z,78.80
2022-08-19T07:47:49.397Z,78.70
2022-08-19T07:50:09.199Z,78.40
2022-08-19T07:52:38.303Z,76.40
2022-08-19T07:55:06.933Z,75.80
2022-08-19T07:57:54.655Z,72.90
2022-08-19T08:00:23.978Z,75.30
2022-08-19T08:02:55.208Z,73.30
2022-08-19T08:05:43.923Z,72.80
2022-08-19T08:08:27.484Z,72.80
2022-08-19T08:10:56.782Z,71.80
2022-08-19T08:13:24.650Z,70.50
2022-08-19T08:15:52.229Z,72.10
2022-08-19T08:18:22.019Z,71.90
2022-08-19T08:20:56.026Z,73.30
2022-08-19T08:23:46.527Z,75.20
2022-08-19T08:26:15.954Z,73.70
2022-08-19T08:28:47.722Z,74.80
2022-08-19T08:31:15.596Z,74.00
2022-08-19T08:33:43.324Z,74.30
2022-08-19T08:36:10.365Z,74.40
2022-08-19T08:38:40.898Z,73.60
2022-08-19T08:41:42.076Z,73.00
2022-08-19T08:44:33.843Z,69.60
2022-08-19T08:47:08.857Z,68.40
2022-08-19T08:49:43.831Z,69.60
2022-08-19T08:52:43.635Z,69.10
2022-08-19T08:55:17.673Z,68.30
2022-08-19T08:57:51.663Z,65.70
2022-08-19T09:00:41.359Z,67.70
2022-08-19T09:03:20.998Z,66.20
2022-08-19T09:06:12.341Z,64.20
2022-08-19T09:08:48.600Z,67.10
2022-08-19T09:11:42.772Z,69.90
2022-08-19T09:14:52.227Z,69.10
2022-08-19T09:17:28.492Z,66.70
2022-08-19T09:20:05.391Z,66.40
2022-08-19T09:22:32.944Z,66.10
2022-08-19T09:25:00.428Z,65.10
2022-08-19T09:27:41.896Z,62.80
2022-08-19T09:30:14.261Z,62.50
2022-08-19T09:32:53.078Z,59.90
2022-08-19T09:35:25.483Z,58.70
2022-08-19T09:37:57.815Z,55.20
2022-08-19T09:40:35.442Z,54.70
2022-08-19T09:43:11.472Z,55.20
2022-08-19T09:45:40.550Z,53.90
2022-08-19T09:48:09.405Z,53.40
2022-08-19T09:50:51.520Z,52.90
2022-08-19T09:53:19.885Z,53.20
2022-08-19T09:55:46.822Z,53.80
2022-08-19T09:58:13.681Z,54.80
2022-08-19T10:00:40.866Z,54.90
2022-08-19T10:03:07.719Z,54.20
2022-08-19T10:05:55.261Z,54.10
2022-08-19T10:08:35.654Z,52.70
2022-08-19T10:11:28.854Z,51.70
2022-08-19T10:13:51.715Z,53.00
2022-08-19T10:16:23.051Z,51.90
2022-08-19T10:18:58.966Z,52.00
2022-08-19T10:21:32.131Z,51.30
2022-08-19T10:24:02.691Z,51.40
2022-08-19T10:26:33.304Z,51.70
2022-08-19T10:29:09.303Z,52.00
2022-08-19T10:32:02.238Z,52.40
2022-08-19T10:34:28.608Z,52.50
2022-08-19T10:37:00.815Z,53.00
2022-08-19T10:39:32.820Z,50.80
2022-08-19T10:42:14.731Z,51.00
2022-08-19T10:44:42.297Z,50.40
2022-08-19T10:47:17.404Z,50.00
2022-08-19T10:50:11.741Z,49.30
2022-08-19T10:52:49.088Z,50.20
2022-08-19T10:55:40.715Z,50.00
2022-08-19T10:58:17.141Z,49.00
2022-08-19T11:00:51.686Z,49.30
2022-08-19T11:03:19.642Z,48.40
2022-08-19T11:05:46.539Z,48.60
2022-08-19T11:08:22.300Z,48.40
2022-08-19T11:10:52.138Z,49.80
2022-08-19T11:13:19.042Z,48.00
2022-08-19T11:15:48.396Z,50.50
2022-08-19T11:18:15.360Z,48.90
2022-08-19T11:20:42.413Z,50.00
2022-08-19T11:23:09.319Z,48.40
2022-08-19T11:25:39.109Z,48.80
2022-08-19T11:28:06.151Z,49.30
2022-08-19T11:30:34.233Z,49.60
2022-08-19T11:33:02.074Z,47.80
2022-08-19T11:35:29.102Z,49.70
2022-08-19T11:37:57.143Z,48.20
2022-08-19T11:40:24.102Z,48.10
2022-08-19T11:42:57.267Z,49.80
2022-08-19T11:45:25.984Z,48.40
2022-08-19T11:47:53.543Z,47.40
2022-08-19T11:50:21.210Z,47.50
2022-08-19T11:52:50.606Z,47.80
2022-08-19T11:55:17.623Z,46.70
2022-08-19T11:57:44.792Z,45.90
2022-08-19T12:00:15.771Z,47.80
2022-08-19T12:02:43.439Z,47.60
2022-08-19T12:05:12.838Z,46.70
2022-08-19T12:07:41.900Z,48.60
2022-08-19T12:10:09.258Z,45.80
2022-08-19T12:12:41.425Z,46.20
2022-08-19T12:15:09.162Z,47.10
2022-08-19T12:17:36.061Z,48.50
2022-08-19T12:20:03.831Z,45.50
2022-08-19T12:22:30.715Z,45.30
2022-08-19T12:24:57.817Z,49.80
2022-08-19T12:27:39.927Z,46.00
2022-08-19T12:30:12.446Z,46.20
2022-08-19T12:32:39.495Z,46.20
2022-08-19T12:35:09.129Z,45.90
2022-08-19T12:37:36.137Z,47.60
2022-08-19T12:40:04.381Z,46.80
2022-08-19T12:42:31.494Z,46.00
2022-08-19T12:44:58.465Z,45.00
2022-08-19T12:47:27.527Z,44.10
2022-08-19T12:49:55.986Z,45.10
2022-08-19T12:52:28.349Z,44.90
2022-08-19T12:54:57.296Z,45.30
2022-08-19T12:57:32.038Z,44.60
2022-08-19T13:00:14.798Z,45.10
2022-08-19T13:02:46.508Z,45.50
2022-08-19T13:05:16.970Z,45.60
2022-08-19T13:07:47.008Z,47.30
2022-08-19T13:10:16.928Z,48.00
2022-08-19T13:12:45.837Z,46.00
2022-08-19T13:15:15.340Z,46.20
2022-08-19T13:17:42.553Z,45.30
2022-08-19T13:20:10.935Z,46.00
2022-08-19T13:22:39.554Z,45.00
2022-08-19T13:25:07.904Z,43.70
2022-08-19T13:27:35.027Z,44.50
2022-08-19T13:30:22.930Z,43.10
2022-08-19T13:33:08.467Z,47.20
2022-08-19T13:35:35.562Z,45.10
2022-08-19T13:38:05.701Z,45.50
2022-08-19T13:40:36.952Z,44.90
2022-08-19T13:43:17.778Z,44.40
2022-08-19T13:45:57.099Z,44.60
2022-08-19T13:48:25.923Z,43.40
2022-08-19T13:50:52.938Z,43.10
2022-08-19T13:53:19.903Z,42.20
2022-08-19T13:55:47.557Z,43.60
2022-08-19T13:58:14.563Z,43.40
2022-08-19T14:00:45.435Z,46.60
2022-08-19T14:03:12.711Z,43.10
2022-08-19T14:05:40.012Z,43.80
2022-08-19T14:08:07.108Z,44.50
2022-08-19T14:10:34.965Z,43.20
2022-08-19T14:13:03.846Z,44.50
2022-08-19T14:15:31.344Z,43.50
2022-08-19T14:17:58.341Z,43.90
2022-08-19T14:20:26.015Z,43.80
2022-08-19T14:22:55.478Z,44.40
2022-08-19T14:25:28.426Z,44.50
2022-08-19T14:27:55.496Z,44.80
2022-08-19T14:30:29.254Z,44.40
2022-08-19T14:32:57.581Z,45.10
2022-08-19T14:35:24.691Z,45.00
2022-08-19T14:37:56.429Z,46.30
2022-08-19T14:40:28.876Z,44.60
2022-08-19T14:43:00.306Z,44.00
2022-08-19T14:45:29.192Z,43.00
2022-08-19T14:47:56.503Z,42.40
2022-08-19T14:50:23.944Z,43.30
2022-08-19T14:52:58.398Z,44.00
2022-08-19T14:55:25.425Z,43.90
2022-08-19T14:57:52.445Z,43.20
2022-08-19T15:00:19.434Z,43.50
2022-08-19T15:02:46.455Z,42.60
2022-08-19T15:05:13.961Z,43.20
2022-08-19T15:07:41.953Z,43.20
2022-08-19T15:10:10.850Z,43.30
2022-08-19T15:12:43.410Z,43.50
2022-08-19T15:15:13.813Z,43.70
2022-08-19T15:17:46.528Z,43.80
2022-08-19T15:20:22.123Z,43.70
2022-08-19T15:22:49.314Z,43.20
2022-08-19T15:25:19.638Z,43.70
2022-08-19T15:27:46.695Z,43.70
2022-08-19T15:30:21.124Z,44.20
2022-08-19T15:32:49.161Z,44.20
2022-08-19T15:35:16.640Z,44.50
2022-08-19T15:37:43.842Z,44.40
2022-08-19T15:40:11.358Z,44.40
2022-08-19T15:42:39.103Z,44.60
2022-08-19T15:45:08.404Z,45.20
2022-08-19T15:47:35.887Z,45.70
2022-08-19T15:50:11.261Z,45.30
2022-08-19T15:52:55.354Z,46.90
2022-08-19T15:55:33.131Z,45.90
2022-08-19T15:58:28.355Z,46.00
2022-08-19T16:01:21.185Z,45.50
2022-08-19T16:04:15.001Z,45.00
2022-08-19T16:06:55.241Z,43.80
2022-08-19T16:09:27.686Z,44.30
2022-08-19T16:11:59.652Z,43.90
2022-08-19T16:14:29.854Z,43.70
2022-08-19T16:16:57.131Z,43.20
2022-08-19T16:19:24.529Z,44.20
2022-08-19T16:21:53.582Z,44.50
2022-08-19T16:24:22.886Z,44.10
2022-08-19T16:26:50.257Z,43.80
2022-08-19T16:29:33.177Z,43.80
2022-08-19T16:32:02.810Z,44.00
2022-08-19T16:34:31.072Z,43.90
2022-08-19T16:36:58.175Z,44.00
2022-08-19T16:39:25.276Z,44.10
2022-08-19T16:41:52.149Z,44.30
2022-08-19T16:44:21.081Z,44.90
2022-08-19T16:46:58.439Z,45.60
2022-08-19T16:49:53.656Z,45.40
2022-08-19T16:52:17.548Z,45.30
2022-08-19T16:54:44.778Z,45.60
2022-08-19T16:57:12.564Z,46.40
2022-08-19T16:59:44.172Z,47.20
2022-08-19T17:02:19.374Z,47.00
2022-08-19T17:04:57.252Z,46.80
2022-08-19T17:07:29.457Z,47.00
2022-08-19T17:10:02.160Z,47.30
2022-08-19T17:12:31.824Z,47.00
2022-08-19T17:15:00.810Z,47.80
2022-08-19T17:17:29.366Z,48.00
2022-08-19T17:19:59.033Z,47.90
2022-08-19T17:22:26.618Z,48.20
2022-08-19T17:24:54.053Z,48.50
2022-08-19T17:27:24.650Z,49.20
2022-08-19T17:29:53.032Z,48.60
2022-08-19T17:32:25.174Z,48.80
2022-08-19T17:34:54.238Z,48.90
2022-08-19T17:37:21.383Z,49.10
2022-08-19T17:39:48.349Z,49.30
2022-08-19T17:42:15.308Z,49.20
2022-08-19T17:44:42.261Z,48.60
2022-08-19T17:47:13.813Z,50.20
2022-08-19T17:49:40.959Z,49.20
2022-08-19T17:52:10.057Z,49.50
2022-08-19T17:54:37.434Z,48.50
2022-08-19T17:57:04.518Z,49.60
2022-08-19T17:59:31.544Z,50.10
2022-08-19T18:02:00.052Z,50.10
2022-08-19T18:04:29.494Z,49.70
2022-08-19T18:06:56.825Z,49.70
2022-08-19T18:09:25.300Z,49.90
2022-08-19T18:11:54.372Z,50.30
2022-08-19T18:14:32.955Z,51.50
2022-08-19T18:17:09.561Z,51.10
2022-08-19T18:19:47.660Z,50.00
2022-08-19T18:22:27.904Z,50.40
2022-08-19T18:24:56.386Z,50.30
2022-08-19T18:27:24.339Z,51.40
2022-08-19T18:29:51.333Z,51.70
2022-08-19T18:32:23.105Z,51.80
2022-08-19T18:34:51.184Z,52.80
2022-08-19T18:37:18.074Z,52.70
2022-08-19T18:40:03.502Z,53.60
2022-08-19T18:42:49.174Z,53.80
2022-08-19T18:45:34.576Z,54.40
2022-08-19T18:48:26.944Z,55.10
2022-08-19T18:50:55.953Z,55.10
2022-08-19T18:53:22.950Z,56.30
2022-08-19T18:55:52.002Z,56.40
2022-08-19T18:58:20.132Z,56.70
2022-08-19T19:00:48.621Z,57.00
2022-08-19T19:03:15.564Z,57.30
2022-08-19T19:05:44.253Z,57.60
2022-08-19T19:08:16.500Z,57.40
2022-08-19T19:10:43.479Z,57.20
2022-08-19T19:13:15.455Z,57.40
2022-08-19T19:15:43.901Z,58.10
2022-08-19T19:18:13.453Z,57.90
2022-08-19T19:20:41.345Z,58.20
2022-08-19T19:23:08.867Z,58.30
2022-08-19T19:25:49.755Z,59.00
2022-08-19T19:28:20.807Z,59.30
2022-08-19T19:30:47.712Z,59.50
2022-08-19T19:33:14.691Z,58.10
2022-08-19T19:35:44.850Z,58.70
2022-08-19T19:38:14.400Z,60.00
2022-08-19T19:40:41.468Z,60.40
2022-08-19T19:43:08.539Z,60.80
2022-08-19T19:45:35.671Z,61.90
2022-08-19T19:48:05.003Z,61.60
2022-08-19T19:50:32.322Z,60.30
2022-08-19T19:52:59.255Z,60.90
2022-08-19T19:55:27.380Z,61.70
2022-08-19T19:57:54.611Z,62.20
2022-08-19T20:00:22.201Z,62.50
2022-08-19T20:02:50.895Z,63.00
2022-08-19T20:05:20.917Z,64.20
2022-08-19T20:08:06.391Z,63.40
2022-08-19T20:10:33.786Z,63.50
2022-08-19T20:13:02.620Z,66.20
2022-08-19T20:15:31.565Z,68.60
2022-08-19T20:18:00.092Z,70.10
2022-08-19T20:20:27.292Z,71.50
2022-08-19T20:22:54.298Z,70.80
2022-08-19T20:25:22.178Z,72.10
2022-08-19T20:27:50.323Z,72.30
2022-08-19T20:30:20.239Z,73.00
2022-08-19T20:32:49.094Z,75.00
2022-08-19T20:35:18.807Z,74.70
2022-08-19T20:37:45.744Z,76.80
2022-08-19T20:40:13.526Z,75.60
2022-08-19T20:42:42.074Z,78.10
2022-08-19T20:45:16.851Z,78.90
2022-08-19T20:47:58.837Z,80.00
2022-08-19T20:50:26.234Z,79.80
2022-08-19T20:52:57.212Z,81.20
2022-08-19T20:55:24.241Z,81.60
2022-08-19T20:57:51.709Z,84.20
2022-08-19T21:00:19.003Z,85.20
2022-08-19T21:02:46.988Z,85.10
2022-08-19T21:05:14.873Z,85.90
2022-08-19T21:07:41.983Z,86.80
2022-08-19T21:10:09.225Z,88.50
2022-08-19T21:12:36.258Z,90.20
2022-08-19T21:15:04.020Z,89.90
2022-08-19T21:17:31.575Z,90.80
2022-08-19T21:19:58.490Z,91.10
2022-08-19T21:22:25.491Z,90.90
2022-08-19T21:24:52.502Z,92.00
2022-08-19T21:27:19.428Z,91.80
2022-08-19T21:29:46.375Z,92.60
2022-08-19T21:32:14.474Z,93.60
2022-08-19T21:34:43.923Z,93.90
2022-08-19T21:37:24.778Z,93.50
2022-08-19T21:39:52.662Z,94.00
2022-08-19T21:42:19.821Z,94.50
2022-08-19T21:44:46.722Z,95.20
2022-08-19T21:47:13.911Z,95.30
2022-08-19T21:49:40.825Z,96.90
2022-08-19T21:52:08.759Z,96.70
2022-08-19T21:54:38.206Z,96.70
2022-08-19T21:57:07.054Z,96.70
2022-08-19T21:59:43.597Z,96.50
2022-08-19T22:02:20.489Z,97.20
2022-08-19T22:04:48.853Z,97.40
2022-08-19T22:07:15.858Z,96.50
2022-08-19T22:09:44.562Z,96.80
2022-08-19T22:12:25.282Z,96.40
2022-08-19T22:14:53.624Z,97.30
2022-08-19T22:17:21.164Z,97.10
2022-08-19T22:19:48.741Z,97.30
2022-08-19T22:22:24.377Z,96.30
2022-08-19T22:25:00.312Z,96.90
2022-08-19T22:27:28.205Z,97.20
2022-08-19T22:29:55.533Z,97.40
2022-08-19T22:32:28.201Z,97.90
2022-08-19T22:34:58.683Z,97.30
2022-08-19T22:37:27.217Z,97.70
2022-08-19T22:39:54.518Z,98.70
2022-08-19T22:42:22.532Z,98.60
2022-08-19T22:44:49.632Z,97.80
2022-08-19T22:47:17.102Z,98.40
2022-08-19T22:49:45.418Z,98.00
2022-08-19T22:52:17.407Z,97.50
2022-08-19T22:54:53.089Z,97.50
2022-08-19T22:57:21.753Z,98.00
2022-08-19T22:59:52.016Z,98.10
2022-08-19T23:02:26.343Z,97.70
2022-08-19T23:04:53.479Z,98.60
2022-08-19T23:07:23.659Z,97.90
2022-08-19T23:09:51.258Z,98.10
2022-08-19T23:12:31.267Z,98.70
2022-08-19T23:15:04.952Z,99.40
2022-08-19T23:17:31.901Z,98.70
2022-08-19T23:19:59.934Z,99.20
2022-08-19T23:22:29.432Z,99.60
2022-08-19T23:25:01.336Z,98.80
2022-08-19T23:27:46.757Z,98.70
2022-08-19T23:30:39.894Z,99.40
2022-08-19T23:33:21.553Z,99.00
2022-08-19T23:35:49.215Z,99.40
2022-08-19T23:38:16.152Z,99.70
2022-08-19T23:40:43.161Z,99.30
2022-08-19T23:43:10.377Z,99.20
2022-08-19T23:45:39.531Z,99.00
2022-08-19T23:48:08.386Z,99.60
2022-08-19T23:50:35.886Z,99.50
2022-08-19T23:53:03.973Z,99.90
2022-08-19T23:55:35.420Z,99.90
2022-08-19T23:58:03.632Z,99.90
